Surhuizum, Netherlands
Current Conditions -  °F | °C
As of 5:47 AM on Friday 31 Oct 2014 (Local Time) from EHLW Reporting Station
Moderate Fog Moderate Fog  
Wind Chill: 52°   Ceiling: 800
Heat Index: 52°   Visibility: 0.18mi
Dew Point: 52°   Wind: 6mph
Humidity: 100%   Direction: 180°S
Pressure: 30.12"   Gusts: NA
Location:  53.2°N, 6.18°E
Report Text: EHLW 310447Z AUTO 18005KT 0300 R23/1800 FG BKN000 OVC008 11/11 Q1020 RED
Loading
Personal Weather Stations






























Interactive Weather Map
Tropical Storm Tracking
New forecast layout! Learn more

10-Day Weather Forecast

Advertisements
Track Severe Weather on mobile